Terminal Aerodrome Forecast
Issued by NWS Omaha/Valley, NE

Home | Current Version | Previous Version | Text Only | Print | Product List | Glossary On
Versions: 1 2 3 4 5 6 7 8 9 10 11 12 13 14 15 16 17 18 19 20
000
FTUS43 KOAX 211138
TAFOMA
TAF
KOMA 211138Z 2112/2212 16005KT 2SM BR SKC
      TEMPO 2112/2114 3/4SM BR OVC002
     FM211500 17006KT P6SM SKC
     FM211800 20012KT P6SM SKC=

USA.gov is the U.S. government's official web portal to all federal, state and local government web resources and services.